Time;durP1;ratioP1;P1;durP2;ratioP2;P2;SDS_P1;SDS_P2;PMS_P1;PMS_P2;Temp;Humidity;BMP_temperature;BMP_pressure;BME280_temperature;BME280_humidity;BME280_pressure;Samples;Min_cycle;Max_cycle;Signal;HPM_P1;HPM_P2
2022/09/28 00:01:30;;;;;;;1.83;0.70;;;;;;;9.76;100.00;94719.63;5038514;28;20296;-69
2022/09/28 00:03:58;;;;;;;1.97;0.80;;;;;;;9.77;100.00;94723.88;5038475;28;20205;-70
2022/09/28 00:06:27;;;;;;;1.53;0.70;;;;;;;9.87;100.00;94727.69;5038749;28;20728;-70
2022/09/28 00:08:54;;;;;;;2.00;1.03;;;;;;;9.84;100.00;94724.69;5038777;28;20229;-70
2022/09/28 00:11:22;;;;;;;4.10;0.80;;;;;;;9.86;100.00;94712.94;5039292;28;20231;-69
2022/09/28 00:13:51;;;;;;;2.47;0.73;;;;;;;9.86;100.00;94707.69;5038850;28;20206;-69
2022/09/28 00:16:19;;;;;;;1.90;0.67;;;;;;;9.78;100.00;94701.84;5038619;28;21282;-70
2022/09/28 00:18:46;;;;;;;1.43;0.70;;;;;;;9.67;100.00;94699.06;5036385;28;20194;-69
2022/09/28 00:21:15;;;;;;;6.67;1.10;;;;;;;9.84;100.00;94701.81;5039332;28;20201;-70
2022/09/28 00:26:23;;;;;;;1.97;0.60;;;;;;;9.81;100.00;94696.97;5037734;28;20266;-70
2022/09/28 00:28:51;;;;;;;0.63;0.63;;;;;;;9.90;100.00;94682.56;5039345;28;20313;-69
2022/09/28 00:31:17;;;;;;;0.53;0.53;;;;;;;9.73;100.00;94673.50;5038435;28;20208;-69
2022/09/28 00:33:44;;;;;;;1.90;0.93;;;;;;;9.80;100.00;94678.75;5037420;28;20201;-69
2022/09/28 00:36:10;;;;;;;0.73;0.53;;;;;;;9.83;100.00;94665.19;5038986;28;20285;-70
2022/09/28 00:38:39;;;;;;;1.60;0.90;;;;;;;9.89;100.00;94662.53;5037758;28;20208;-68
2022/09/28 00:41:07;;;;;;;1.07;0.67;;;;;;;9.82;100.00;94651.22;5038057;28;20252;-69
2022/09/28 00:43:33;;;;;;;0.97;0.70;;;;;;;9.82;100.00;94651.22;5037218;28;21172;-70
2022/09/28 00:46:03;;;;;;;1.47;0.80;;;;;;;9.86;100.00;94651.59;5038742;28;20192;-69
2022/09/28 00:48:35;;;;;;;0.70;0.70;;;;;;;9.87;100.00;94653.22;5038061;28;20229;-70
2022/09/28 00:51:05;;;;;;;2.27;0.70;;;;;;;9.84;100.00;94633.41;5038454;28;20279;-69
2022/09/28 00:53:35;;;;;;;0.80;0.70;;;;;;;9.87;100.00;94637.44;5037248;28;20208;-69
2022/09/28 00:56:08;;;;;;;4.13;0.90;;;;;;;9.80;100.00;94621.69;5038043;28;20197;-69
2022/09/28 00:58:39;;;;;;;1.00;0.80;;;;;;;9.79;100.00;94622.72;5037803;28;20197;-69
2022/09/28 01:01:06;;;;;;;3.40;0.80;;;;;;;9.82;100.00;94617.03;5038359;28;20221;-69
2022/09/28 01:03:33;;;;;;;4.70;0.90;;;;;;;9.80;100.00;94615.63;5037024;28;20581;-70
2022/09/28 01:06:02;;;;;;;2.93;1.30;;;;;;;9.86;100.00;94601.63;5037983;28;20212;-69
2022/09/28 01:08:31;;;;;;;1.37;0.80;;;;;;;9.88;100.00;94602.25;5036565;28;20956;-70
2022/09/28 01:10:59;;;;;;;1.57;0.97;;;;;;;9.81;100.00;94597.03;5038289;28;20216;-69
2022/09/28 01:13:28;;;;;;;4.73;1.10;;;;;;;9.85;100.00;94587.69;5036969;28;20302;-70
2022/09/28 01:16:06;;;;;;;2.30;0.90;;;;;;;9.88;100.00;94581.97;5038273;28;20197;-69
2022/09/28 01:18:40;;;;;;;5.10;0.87;;;;;;;9.90;100.00;94579.97;5034843;28;20204;-69
2022/09/28 01:21:13;;;;;;;4.23;1.10;;;;;;;9.94;100.00;94573.25;5038056;28;20201;-69
2022/09/28 01:24:17;;;;;;;1.33;0.80;;;;;;;10.05;100.00;94569.94;5036879;28;20205;-70
2022/09/28 01:26:51;;;;;;;4.33;1.53;;;;;;;9.92;100.00;94566.59;5037439;28;20220;-69
2022/09/28 01:29:29;;;;;;;3.33;1.10;;;;;;;9.97;100.00;94559.69;5037380;28;20232;-69
2022/09/28 01:32:03;;;;;;;5.30;1.00;;;;;;;9.96;100.00;94558.06;5038500;28;20232;-69
2022/09/28 01:34:37;;;;;;;3.43;1.00;;;;;;;10.03;100.00;94550.97;5036388;28;20239;-69
2022/09/28 01:37:09;;;;;;;1.97;1.20;;;;;;;10.03;100.00;94548.31;5037699;28;20204;-69
2022/09/28 01:39:40;;;;;;;4.70;1.10;;;;;;;9.97;100.00;94537.84;5036912;28;20602;-70
2022/09/28 01:42:12;;;;;;;3.23;1.00;;;;;;;9.94;100.00;94533.78;5037812;28;20205;-70
2022/09/28 01:44:45;;;;;;;3.27;1.10;;;;;;;9.99;100.00;94534.00;5035952;28;20206;-69
2022/09/28 01:47:15;;;;;;;2.03;1.10;;;;;;;10.01;100.00;94528.50;5037220;28;20208;-68
2022/09/28 01:49:46;;;;;;;5.47;1.50;;;;;;;9.98;100.00;94519.22;5036876;28;20689;-69
2022/09/28 01:52:17;;;;;;;4.60;1.10;;;;;;;9.94;100.00;94512.75;5037364;28;20200;-69
2022/09/28 01:54:49;;;;;;;3.87;1.40;;;;;;;9.93;100.00;94505.88;5037031;28;20231;-69
2022/09/28 01:57:22;;;;;;;3.97;1.20;;;;;;;9.90;100.00;94494.97;5036604;28;20209;-70
2022/09/28 01:59:55;;;;;;;3.23;1.07;;;;;;;9.95;100.00;94495.94;5036656;28;20221;-70
2022/09/28 02:02:26;;;;;;;2.87;1.10;;;;;;;9.96;100.00;94505.47;5036520;28;20207;-70
2022/09/28 02:04:57;;;;;;;5.63;1.10;;;;;;;9.84;100.00;94501.88;5037037;28;20201;-70
2022/09/28 02:07:29;;;;;;;2.77;1.17;;;;;;;9.95;100.00;94490.69;5036419;28;20202;-70
2022/09/28 02:10:00;;;;;;;2.27;1.00;;;;;;;9.98;100.00;94485.00;5033488;28;20620;-70
2022/09/28 02:12:35;;;;;;;4.30;1.03;;;;;;;9.98;100.00;94481.56;5036115;28;20205;-69
2022/09/28 02:15:14;;;;;;;5.13;1.20;;;;;;;9.97;100.00;94480.75;5036748;28;20205;-69
2022/09/28 02:17:40;;;;;;;3.10;1.27;;;;;;;9.87;100.00;94488.28;5033682;28;20201;-69
2022/09/28 02:20:08;;;;;;;2.67;1.30;;;;;;;9.87;100.00;94475.16;5036016;28;20217;-70
2022/09/28 02:22:41;;;;;;;6.40;1.67;;;;;;;9.94;100.00;94470.66;5035618;28;20208;-69
2022/09/28 02:25:11;;;;;;;4.87;1.73;;;;;;;9.97;100.00;94475.50;5036479;28;20316;-70
2022/09/28 02:27:43;;;;;;;6.97;1.90;;;;;;;10.10;100.00;94471.97;5036320;28;20205;-70
2022/09/28 02:30:10;;;;;;;7.57;2.00;;;;;;;9.99;100.00;94468.22;5036814;28;20237;-69
2022/09/28 02:32:41;;;;;;;7.00;1.60;;;;;;;10.16;100.00;94469.25;5035040;28;20703;-70
2022/09/28 02:35:09;;;;;;;3.43;1.57;;;;;;;10.00;100.00;94464.53;5036484;28;20321;-69
2022/09/28 02:37:35;;;;;;;4.53;1.60;;;;;;;9.94;100.00;94470.66;5036464;28;20209;-68
2022/09/28 02:40:02;;;;;;;3.97;1.63;;;;;;;9.93;100.00;94462.97;5036565;28;20240;-70
2022/09/28 02:42:38;;;;;;;2.97;1.83;;;;;;;10.06;100.00;94453.16;5034360;28;20208;-68
2022/09/28 02:45:15;;;;;;;5.17;2.90;;;;;;;10.05;100.00;94454.16;5036892;28;20189;-70
2022/09/28 02:47:56;;;;;;;4.97;2.00;;;;;;;10.10;100.00;94453.53;5036621;28;20820;-70
2022/09/28 02:50:35;;;;;;;8.97;3.23;;;;;;;10.09;100.00;94444.81;5035870;28;21027;-70
2022/09/28 02:53:24;;;;;;;12.03;3.57;;;;;;;10.12;100.00;94449.66;5036347;28;20227;-70
2022/09/28 02:56:06;;;;;;;11.80;3.20;;;;;;;10.05;100.00;94441.00;5035715;28;20208;-71
2022/09/28 02:58:44;;;;;;;7.77;2.10;;;;;;;10.07;100.00;94436.34;5034630;28;20200;-69
2022/09/28 03:01:24;;;;;;;12.63;5.30;;;;;;;10.14;100.00;94431.03;5037111;28;20227;-69
2022/09/28 03:03:57;;;;;;;5.77;2.57;;;;;;;10.02;100.00;94428.31;5035246;28;20197;-70
2022/09/28 03:06:32;;;;;;;6.07;1.00;;;;;;;10.00;100.00;94430.34;5036077;28;20205;-69
2022/09/28 03:09:04;;;;;;;5.57;1.57;;;;;;;10.10;100.00;94428.00;5036074;28;20220;-69
2022/09/28 03:11:37;;;;;;;9.90;3.07;;;;;;;10.13;100.00;94411.81;5036415;28;20212;-69
2022/09/28 03:14:04;;;;;;;3.73;1.60;;;;;;;10.05;100.00;94416.53;5035302;28;20670;-69
2022/09/28 03:16:32;;;;;;;5.40;1.20;;;;;;;10.00;100.00;94405.88;5033868;28;20239;-69
2022/09/28 03:18:59;;;;;;;3.97;1.50;;;;;;;9.93;100.00;94407.72;5035934;28;20204;-69
2022/09/28 03:21:25;;;;;;;5.40;1.40;;;;;;;10.03;100.00;94416.75;5035901;28;20208;-70
2022/09/28 03:23:52;;;;;;;4.03;1.77;;;;;;;9.99;100.00;94402.44;5035761;28;20208;-68
2022/09/28 03:26:18;;;;;;;3.97;0.77;;;;;;;9.99;100.00;94409.50;5036157;28;20201;-70
2022/09/28 03:28:45;;;;;;;1.43;0.87;;;;;;;9.95;100.00;94409.13;5035343;28;20267;-70
2022/09/28 03:31:11;;;;;;;2.03;1.00;;;;;;;10.12;100.00;94404.94;5036090;28;20986;-69
2022/09/28 03:33:40;;;;;;;1.80;1.17;;;;;;;10.11;100.00;94405.94;5038632;28;20216;-69
2022/09/28 03:36:08;;;;;;;6.40;1.07;;;;;;;10.12;100.00;94399.66;5039660;28;20262;-69
2022/09/28 03:38:34;;;;;;;1.17;0.73;;;;;;;9.96;100.00;94394.16;5039277;28;20205;-69
2022/09/28 03:41:01;;;;;;;2.53;0.93;;;;;;;10.07;100.00;94396.06;5040300;28;20248;-69
2022/09/28 03:43:29;;;;;;;2.03;0.90;;;;;;;10.01;100.00;94389.84;5038472;28;21314;-70
2022/09/28 03:45:58;;;;;;;5.70;1.27;;;;;;;10.06;100.00;94389.22;5039855;28;20197;-71
2022/09/28 03:48:25;;;;;;;3.63;1.13;;;;;;;10.07;100.00;94381.09;5039150;28;20216;-68
2022/09/28 03:50:54;;;;;;;3.00;1.10;;;;;;;10.00;100.00;94367.19;5039716;28;20217;-70
2022/09/28 03:53:21;;;;;;;0.83;0.70;;;;;;;10.00;100.00;94367.19;5038385;28;20208;-69
2022/09/28 03:55:47;;;;;;;0.60;0.57;;;;;;;10.00;100.00;94363.75;5039051;28;20343;-69
2022/09/28 03:58:14;;;;;;;1.23;0.40;;;;;;;9.89;100.00;94349.47;5039427;28;20197;-69
2022/09/28 04:00:41;;;;;;;4.10;0.80;;;;;;;10.09;100.00;94350.09;5038195;28;21152;-70
2022/09/28 04:03:08;;;;;;;2.10;0.60;;;;;;;9.96;100.00;94349.44;5038966;28;20201;-69
2022/09/28 04:05:34;;;;;;;0.77;0.60;;;;;;;10.01;100.00;94347.75;5038785;28;20246;-69
2022/09/28 04:08:02;;;;;;;2.63;0.90;;;;;;;10.06;100.00;94337.38;5039054;28;20205;-69
2022/09/28 04:10:29;;;;;;;2.20;0.80;;;;;;;10.08;100.00;94345.88;5038424;28;20225;-70
2022/09/28 04:12:56;;;;;;;1.90;0.57;;;;;;;10.06;100.00;94334.75;5039515;28;20208;-68
2022/09/28 04:15:22;;;;;;;0.80;0.50;;;;;;;10.11;100.00;94334.09;5038724;28;20197;-69
2022/09/28 04:17:48;;;;;;;1.03;0.60;;;;;;;10.13;100.00;94332.03;5035168;28;20201;-69
2022/09/28 04:20:15;;;;;;;2.40;0.80;;;;;;;10.12;100.00;94336.50;5038924;28;20213;-69
2022/09/28 04:22:42;;;;;;;0.97;0.60;;;;;;;10.05;100.00;94330.50;5038525;28;20604;-69
2022/09/28 04:25:10;;;;;;;1.03;0.80;;;;;;;10.12;100.00;94328.63;5038572;28;20208;-69
2022/09/28 04:30:21;;;;;;;0.77;0.70;;;;;;;9.97;100.00;94322.91;5038250;28;20255;-69
2022/09/28 04:32:48;;;;;;;0.70;0.53;;;;;;;10.01;100.00;94324.06;5037954;28;20282;-69
2022/09/28 04:35:14;;;;;;;5.80;1.07;;;;;;;10.05;100.00;94316.56;5038525;28;20228;-69
2022/09/28 04:37:41;;;;;;;1.20;0.70;;;;;;;10.09;100.00;94315.88;5039078;28;20201;-69
2022/09/28 04:40:10;;;;;;;0.90;0.70;;;;;;;10.05;100.00;94319.19;5038532;28;20221;-70
2022/09/28 04:42:36;;;;;;;0.70;0.60;;;;;;;10.09;100.00;94315.09;5037449;28;20201;-69
2022/09/28 04:45:04;;;;;;;6.20;1.67;;;;;;;10.07;100.00;94307.41;5038490;28;20550;-69
2022/09/28 04:47:30;;;;;;;3.33;0.77;;;;;;;10.11;100.00;94308.59;5037969;28;20201;-70
2022/09/28 04:49:57;;;;;;;5.23;1.10;;;;;;;10.07;100.00;94311.84;5037463;28;20233;-69
2022/09/28 04:52:23;;;;;;;0.83;0.70;;;;;;;10.02;100.00;94314.38;5037608;28;20579;-69
2022/09/28 04:54:50;;;;;;;3.60;1.20;;;;;;;9.96;100.00;94310.78;5038426;28;20607;-69
2022/09/28 04:57:17;;;;;;;1.53;0.90;;;;;;;10.02;100.00;94303.84;5037946;28;20197;-69
2022/09/28 04:59:44;;;;;;;2.67;1.00;;;;;;;10.00;100.00;94306.69;5038028;28;20224;-69
2022/09/28 05:02:13;;;;;;;2.90;0.80;;;;;;;9.99;100.00;94299.84;5037545;28;20572;-70
2022/09/28 05:04:40;;;;;;;6.63;1.47;;;;;;;10.05;100.00;94298.94;5038161;28;20205;-69
2022/09/28 05:07:06;;;;;;;8.53;0.90;;;;;;;10.05;100.00;94304.19;5037713;28;20197;-70
2022/09/28 05:09:33;;;;;;;3.27;0.97;;;;;;;10.08;100.00;94297.69;5037809;28;20260;-69
2022/09/28 05:11:59;;;;;;;3.43;1.00;;;;;;;10.05;100.00;94295.50;5037681;28;20581;-69
2022/09/28 05:14:27;;;;;;;4.23;0.90;;;;;;;10.11;100.00;94298.06;5037350;28;20212;-69
2022/09/28 05:16:53;;;;;;;2.43;0.90;;;;;;;10.10;100.00;94296.44;5034626;28;20264;-69
2022/09/28 05:19:20;;;;;;;1.67;0.90;;;;;;;10.06;100.00;94292.66;5038242;28;20620;-68
2022/09/28 05:21:47;;;;;;;1.83;1.00;;;;;;;10.15;100.00;94303.69;5037289;28;20201;-68
2022/09/28 05:24:14;;;;;;;2.30;1.20;;;;;;;10.21;100.00;94295.72;5036694;28;21368;-69
2022/09/28 05:26:41;;;;;;;2.20;1.30;;;;;;;10.15;100.00;94299.22;5037721;28;20202;-70
2022/09/28 05:29:07;;;;;;;0.97;0.77;;;;;;;10.19;100.00;94308.28;5038944;28;20237;-70
2022/09/28 05:31:35;;;;;;;3.83;0.80;;;;;;;10.11;100.00;94308.59;5036726;28;20228;-70
2022/09/28 05:34:02;;;;;;;1.17;0.87;;;;;;;10.09;100.00;94300.09;5036772;28;20227;-70
2022/09/28 05:36:28;;;;;;;4.83;0.90;;;;;;;10.01;100.00;94308.28;5037269;28;20229;-69
2022/09/28 05:38:55;;;;;;;3.90;0.97;;;;;;;10.00;100.00;94298.78;5037928;28;20237;-69
2022/09/28 05:41:21;;;;;;;0.70;0.57;;;;;;;9.99;100.00;94305.09;5036849;28;20201;-69
2022/09/28 05:43:50;;;;;;;0.50;0.50;;;;;;;10.01;100.00;94296.97;5036453;28;20205;-69
2022/09/28 05:46:17;;;;;;;0.40;0.40;;;;;;;9.99;100.00;94297.19;5037262;28;20668;-69
2022/09/28 05:48:44;;;;;;;3.30;0.67;;;;;;;10.12;100.00;94298.84;5036708;28;20584;-70
2022/09/28 05:51:11;;;;;;;0.80;0.67;;;;;;;10.06;100.00;94297.91;5037486;28;20225;-69
2022/09/28 05:53:37;;;;;;;1.53;0.70;;;;;;;10.06;100.00;94300.53;5036907;28;20217;-69
2022/09/28 05:56:04;;;;;;;1.70;0.80;;;;;;;10.13;100.00;94301.28;5040048;28;20201;-69
2022/09/28 05:58:30;;;;;;;2.03;1.63;;;;;;;9.98;100.00;94302.66;5039847;28;20220;-69
2022/09/28 06:00:58;;;;;;;3.50;0.70;;;;;;;9.96;100.00;94305.50;5039385;28;20224;-69
2022/09/28 06:03:24;;;;;;;0.93;0.80;;;;;;;10.00;100.00;94296.16;5038494;28;20201;-69
2022/09/28 06:05:52;;;;;;;2.27;1.00;;;;;;;10.12;100.00;94297.03;5039748;28;20212;-69
2022/09/28 06:08:19;;;;;;;0.93;0.80;;;;;;;10.06;100.00;94300.53;5037328;28;20201;-69
2022/09/28 06:10:45;;;;;;;3.33;0.80;;;;;;;10.06;100.00;94294.50;5038105;28;21235;-69
2022/09/28 06:13:12;;;;;;;1.40;0.90;;;;;;;10.08;100.00;94297.69;5037767;28;20204;-69
2022/09/28 06:15:41;;;;;;;2.27;1.17;;;;;;;10.09;100.00;94289.56;5038298;28;20213;-69
2022/09/28 06:18:10;;;;;;;2.60;1.07;;;;;;;10.17;100.00;94291.09;5039195;28;20193;-69
2022/09/28 06:20:39;;;;;;;1.83;0.90;;;;;;;10.17;100.00;94297.19;5040333;28;20728;-69
2022/09/28 06:23:07;;;;;;;5.23;1.10;;;;;;;10.21;100.00;94298.34;5037910;28;20315;-69
2022/09/28 06:25:34;;;;;;;3.27;1.20;;;;;;;10.18;100.00;94308.50;5036423;28;20585;-69
2022/09/28 06:28:03;;;;;;;1.03;0.80;;;;;;;10.20;100.00;94302.00;5034486;28;20205;-68
2022/09/28 06:30:31;;;;;;;0.70;0.70;;;;;;;10.19;100.00;94308.28;5035834;28;20225;-68
2022/09/28 06:33:00;;;;;;;4.00;1.20;;;;;;;10.27;100.00;94307.97;5035739;28;20685;-67
2022/09/28 06:35:29;;;;;;;1.23;0.93;;;;;;;10.28;100.00;94308.78;5038793;28;20201;-69
2022/09/28 06:37:55;;;;;;;2.43;1.30;;;;;;;10.18;100.00;94329.56;5040036;28;20212;-69
2022/09/28 06:40:24;;;;;;;1.30;0.77;;;;;;;10.14;100.00;94344.97;5040891;28;20224;-68
2022/09/28 06:42:57;;;;;;;1.10;0.73;;;;;;;9.89;100.00;94369.69;5039146;28;20286;-70
2022/09/28 06:45:25;;;;;;;1.40;1.23;;;;;;;9.64;100.00;94373.41;5037543;28;20202;-69
2022/09/28 06:47:56;;;;;;;1.90;1.30;;;;;;;9.56;100.00;94371.84;5036756;28;20205;-70
2022/09/28 06:50:23;;;;;;;3.37;2.27;;;;;;;9.27;100.00;94376.94;5036161;28;20231;-69
2022/09/28 06:52:51;;;;;;;2.03;1.23;;;;;;;9.43;100.00;94381.66;5035256;28;20648;-70
2022/09/28 06:55:17;;;;;;;1.57;1.40;;;;;;;9.22;100.00;94384.66;5035606;28;21225;-70
2022/09/28 06:57:45;;;;;;;1.40;0.83;;;;;;;9.41;100.00;94383.72;5037021;28;20571;-70
2022/09/28 07:00:13;;;;;;;0.73;0.70;;;;;;;9.31;100.00;94384.19;5035776;28;20217;-70
2022/09/28 07:02:40;;;;;;;0.80;0.70;;;;;;;9.38;100.00;94390.22;5035329;28;20206;-70
2022/09/28 07:05:08;;;;;;;2.80;0.60;;;;;;;9.29;100.00;94394.13;5036862;28;21103;-70
2022/09/28 07:07:34;;;;;;;0.57;0.57;;;;;;;9.29;100.00;94402.00;5040175;28;20224;-69
2022/09/28 07:10:01;;;;;;;2.50;0.80;;;;;;;9.32;100.00;94417.34;5039289;28;20228;-70
2022/09/28 07:12:27;;;;;;;1.20;0.70;;;;;;;9.24;100.00;94416.78;5039458;28;20636;-71
2022/09/28 07:14:56;;;;;;;0.70;0.70;;;;;;;9.38;100.00;94410.41;5040005;28;20201;-70
2022/09/28 07:17:23;;;;;;;1.00;0.70;;;;;;;9.30;100.00;94411.47;5036623;28;20205;-70
2022/09/28 07:19:51;;;;;;;0.40;0.40;;;;;;;9.25;100.00;94413.97;5039681;28;20725;-70
2022/09/28 07:22:18;;;;;;;0.67;0.40;;;;;;;9.30;100.00;94418.56;5036010;28;20205;-71
2022/09/28 07:24:44;;;;;;;1.73;0.60;;;;;;;9.26;100.00;94420.00;5039186;28;20209;-71
2022/09/28 07:27:11;;;;;;;0.40;0.40;;;;;;;9.21;100.00;94422.47;5040280;28;20217;-70
2022/09/28 07:29:37;;;;;;;0.50;0.50;;;;;;;9.21;100.00;94430.34;5039071;28;20240;-71
2022/09/28 07:32:05;;;;;;;0.87;0.50;;;;;;;9.30;100.00;94437.75;5039690;28;20205;-70
2022/09/28 07:34:38;;;;;;;0.33;0.30;;;;;;;9.21;100.00;94435.59;5039087;28;20205;-71
2022/09/28 07:37:07;;;;;;;1.47;0.90;;;;;;;9.37;100.00;94445.63;5041169;28;20194;-70
2022/09/28 07:41:10;;;;;;;2.13;1.50;;;;;;;9.39;100.00;94449.63;5040777;28;20322;-70
2022/09/28 07:42:20;;;;;;;3.57;1.83;;;;;;;9.44;100.00;94446.38;5039681;28;20211;-70
2022/09/28 07:44:46;;;;;;;1.73;1.00;;;;;;;9.46;100.00;94454.84;5042553;28;20469;-70
2022/09/28 07:47:14;;;;;;;2.03;1.10;;;;;;;9.53;100.00;94466.13;5042848;28;20208;-70
2022/09/28 07:49:41;;;;;;;0.53;0.50;;;;;;;9.52;100.00;94467.94;5039533;28;21053;-70
2022/09/28 07:52:07;;;;;;;3.63;1.23;;;;;;;9.66;100.00;94466.03;5039868;28;20253;-70
2022/09/28 07:54:35;;;;;;;3.03;1.40;;;;;;;9.76;100.00;94467.97;5040249;28;20208;-70
2022/09/28 07:57:01;;;;;;;2.33;1.13;;;;;;;9.81;100.00;94473.41;5039154;28;20209;-68
2022/09/28 07:59:28;;;;;;;1.83;1.10;;;;;;;9.95;100.00;94476.72;5039569;28;20331;-69
2022/09/28 08:01:54;;;;;;;6.30;2.00;;;;;;;10.02;100.00;94475.66;5040018;28;20212;-69
2022/09/28 08:04:24;;;;;;;5.03;2.20;;;;;;;10.20;100.00;94478.34;5038602;28;20205;-69
2022/09/28 08:06:51;;;;;;;5.87;2.13;;;;;;;10.20;100.00;94474.91;5039183;28;20288;-69
2022/09/28 08:09:17;;;;;;;1.73;1.23;;;;;;;10.28;100.00;94482.50;5039091;28;20248;-69
2022/09/28 08:11:43;;;;;;;2.97;1.97;;;;;;;10.36;100.00;94485.66;5039137;28;20225;-69
2022/09/28 08:14:10;;;;;;;3.53;1.70;;;;;;;10.44;100.00;94491.44;5038693;28;20209;-67
2022/09/28 08:16:37;;;;;;;2.47;1.00;;;;;;;10.23;100.00;94487.63;5037007;28;20232;-68
2022/09/28 08:19:03;;;;;;;1.33;0.80;;;;;;;10.34;100.00;94488.50;5034396;28;20234;-68
2022/09/28 08:21:45;;;;;;;2.27;1.57;;;;;;;10.49;100.00;94496.06;5039045;28;20205;-67
2022/09/28 08:24:12;;;;;;;1.83;1.20;;;;;;;10.38;100.00;94494.16;5038134;28;21093;-66
2022/09/28 08:26:38;;;;;;;1.27;1.00;;;;;;;10.49;100.00;94496.06;5038777;28;20213;-67
2022/09/28 08:29:05;;;;;;;2.50;1.40;;;;;;;10.37;100.00;94500.44;5038635;28;20221;-67
2022/09/28 08:31:31;;;;;;;2.67;1.37;;;;;;;10.50;100.00;94510.84;5038155;28;20236;-67
2022/09/28 08:33:58;;;;;;;2.70;1.50;;;;;;;10.44;100.00;94504.63;5038096;28;20375;-66
2022/09/28 08:36:24;;;;;;;1.70;0.93;;;;;;;10.44;100.00;94509.09;5033471;28;20205;-67
2022/09/28 08:38:52;;;;;;;2.00;0.90;;;;;;;10.46;100.00;94513.13;5035185;28;20205;-67
2022/09/28 08:41:31;;;;;;;2.60;1.40;;;;;;;10.57;100.00;94519.50;5036084;28;20205;-67
2022/09/28 08:44:10;;;;;;;3.30;2.10;;;;;;;10.61;100.00;94515.38;5033859;28;20235;-67
2022/09/28 08:46:39;;;;;;;1.43;0.97;;;;;;;10.55;100.00;94526.78;5035898;28;20204;-66
2022/09/28 08:49:10;;;;;;;3.63;1.47;;;;;;;10.69;100.00;94525.63;5035909;28;20599;-67
2022/09/28 08:51:42;;;;;;;1.57;0.80;;;;;;;10.72;100.00;94519.94;5035304;28;20233;-67
2022/09/28 08:54:22;;;;;;;3.30;1.03;;;;;;;10.90;100.00;94531.28;5036037;28;20213;-69
2022/09/28 08:56:53;;;;;;;4.03;1.43;;;;;;;11.00;100.00;94513.13;5037581;28;20206;-69
2022/09/28 08:59:23;;;;;;;1.33;0.90;;;;;;;10.93;100.00;94524.78;5032270;28;20218;-70
2022/09/28 09:01:55;;;;;;;1.37;1.10;;;;;;;10.95;100.00;94518.25;5037320;28;20197;-70
2022/09/28 09:04:21;;;;;;;3.20;0.80;;;;;;;11.03;100.00;94520.59;5035489;28;20334;-70
2022/09/28 09:07:09;;;;;;;3.23;1.50;;;;;;;11.01;100.00;94520.00;5033515;28;20211;-70
2022/09/28 09:09:49;;;;;;;2.77;0.90;;;;;;;11.01;100.00;94534.00;5036204;28;20247;-70
2022/09/28 09:12:29;;;;;;;1.70;0.90;;;;;;;10.95;100.00;94534.84;5036682;28;20213;-70
2022/09/28 09:15:27;;;;;;;1.13;0.90;;;;;;;11.02;100.00;94540.06;5036326;28;20204;-70
2022/09/28 09:18:07;;;;;;;1.40;1.00;;;;;;;10.95;100.00;94547.25;5036444;28;20665;-70
2022/09/28 09:20:43;;;;;;;2.10;1.13;;;;;;;10.92;100.00;94550.31;5035998;28;20225;-69
2022/09/28 09:23:19;;;;;;;1.10;1.00;;;;;;;10.88;100.00;94550.97;5034101;28;20219;-69
2022/09/28 09:25:49;;;;;;;2.07;1.50;;;;;;;10.83;100.00;94551.59;5035119;28;20307;-69
2022/09/28 09:28:43;;;;;;;4.47;1.03;;;;;;;10.82;100.00;94552.66;5036418;28;20200;-69
2022/09/28 09:31:25;;;;;;;2.37;1.33;;;;;;;10.80;100.00;94559.16;5036858;28;20221;-69
2022/09/28 09:34:08;;;;;;;1.00;0.67;;;;;;;10.67;100.00;94559.31;5035577;28;20201;-69
2022/09/28 09:36:47;;;;;;;5.17;0.83;;;;;;;10.54;100.00;94568.13;5036336;28;20201;-70
2022/09/28 09:39:30;;;;;;;3.10;1.00;;;;;;;10.70;100.00;94564.13;5036681;28;20739;-69
2022/09/28 09:42:17;;;;;;;1.90;1.13;;;;;;;10.75;100.00;94572.97;5036401;28;20532;-70
2022/09/28 09:45:02;;;;;;;1.10;1.00;;;;;;;10.80;100.00;94573.13;5036683;28;20316;-70
2022/09/28 09:47:34;;;;;;;1.80;1.10;;;;;;;10.79;100.00;94570.72;5038067;28;20201;-70
2022/09/28 09:50:15;;;;;;;2.00;1.17;;;;;;;10.72;100.00;94573.41;5054574;27;20587;-70
2022/09/28 09:52:48;;;;;;;0.80;0.80;;;;;;;10.65;100.00;94563.97;5051940;28;20200;-69
2022/09/28 09:55:20;;;;;;;3.30;1.63;;;;;;;10.82;100.00;94575.53;5052241;28;20203;-70
2022/09/28 09:57:52;;;;;;;2.27;1.20;;;;;;;10.83;100.00;94571.88;5052976;28;20242;-68
2022/09/28 10:00:19;;;;;;;2.63;1.73;;;;;;;10.83;100.00;94582.44;5053397;28;20685;-68
2022/09/28 10:02:48;;;;;;;4.43;1.30;;;;;;;10.88;100.00;94572.84;5051559;28;20200;-68
2022/09/28 10:05:22;;;;;;;4.83;2.30;;;;;;;10.82;100.00;94586.09;5049497;28;20200;-68
2022/09/28 10:07:53;;;;;;;3.47;1.60;;;;;;;10.80;100.00;94586.31;5052055;28;20200;-68
2022/09/28 10:10:23;;;;;;;2.97;1.73;;;;;;;10.84;100.00;94590.09;5052229;28;20756;-70
2022/09/28 10:12:51;;;;;;;3.53;2.10;;;;;;;10.91;100.00;94580.31;5051368;28;20789;-70
2022/09/28 10:15:22;;;;;;;1.87;1.30;;;;;;;10.99;100.00;94575.56;5052223;28;20196;-70
2022/09/28 10:17:49;;;;;;;3.13;1.10;;;;;;;10.86;100.00;94588.06;5051638;28;20228;-71
2022/09/28 10:20:18;;;;;;;2.80;1.47;;;;;;;10.98;100.00;94584.50;5052011;28;20228;-67
2022/09/28 10:22:45;;;;;;;3.40;1.00;;;;;;;10.93;100.00;94580.09;5051081;28;20662;-70
2022/09/28 10:25:13;;;;;;;3.43;1.73;;;;;;;10.97;100.00;94569.72;5052046;28;20259;-69
2022/09/28 10:27:44;;;;;;;5.30;2.87;;;;;;;11.02;100.00;94577.78;5051656;28;20571;-69
2022/09/28 10:30:17;;;;;;;4.23;2.63;;;;;;;11.04;100.00;94580.97;5051629;28;20233;-69
2022/09/28 10:32:46;;;;;;;8.33;4.73;;;;;;;11.04;100.00;94575.69;5051480;28;20193;-69
2022/09/28 10:35:22;;;;;;;9.33;5.43;;;;;;;11.02;100.00;94579.59;5051284;28;21100;-69
2022/09/28 10:37:56;;;;;;;1.73;1.40;;;;;;;10.85;100.00;94573.28;5051500;28;20617;-70
2022/09/28 10:40:37;;;;;;;4.67;1.90;;;;;;;11.10;100.00;94580.09;5049213;28;20704;-70
2022/09/28 10:43:06;;;;;;;5.80;2.10;;;;;;;10.93;100.00;94579.09;5051292;28;20572;-70
2022/09/28 10:45:36;;;;;;;2.03;0.97;;;;;;;10.89;100.00;94578.94;5051045;28;20733;-69
2022/09/28 10:48:06;;;;;;;2.43;1.50;;;;;;;11.00;100.00;94581.66;5051639;28;20216;-69
2022/09/28 10:50:34;;;;;;;3.63;1.77;;;;;;;10.94;100.00;94583.31;5051263;28;20242;-69
2022/09/28 10:53:19;;;;;;;1.97;1.70;;;;;;;11.09;100.00;94588.25;5050387;28;20786;-70
2022/09/28 10:55:58;;;;;;;2.70;1.23;;;;;;;11.08;100.00;94586.63;5051741;28;20250;-70
2022/09/28 10:58:27;;;;;;;3.03;1.40;;;;;;;11.01;100.00;94586.69;5051360;28;20278;-70
2022/09/28 11:01:01;;;;;;;5.07;1.33;;;;;;;11.10;100.00;94587.22;5041317;28;20213;-70
2022/09/28 11:03:29;;;;;;;1.87;1.30;;;;;;;11.19;100.00;94589.34;5037548;28;20197;-70
2022/09/28 11:06:00;;;;;;;1.70;1.00;;;;;;;11.30;100.00;94585.16;5035041;28;20213;-70
2022/09/28 11:08:31;;;;;;;2.80;1.53;;;;;;;11.47;100.00;94578.22;5037546;28;20217;-70
2022/09/28 11:11:03;;;;;;;5.20;2.47;;;;;;;11.69;100.00;94564.38;5037025;28;20221;-70
2022/09/28 11:13:30;;;;;;;5.73;1.70;;;;;;;11.55;100.00;94578.78;5036817;28;20212;-70
2022/09/28 11:15:56;;;;;;;3.20;1.70;;;;;;;11.50;99.00;94581.28;5037179;28;20296;-70
2022/09/28 11:18:28;;;;;;;3.63;1.13;;;;;;;11.51;98.70;94574.97;5037550;28;20681;-70
2022/09/28 11:21:08;;;;;;;3.47;1.50;;;;;;;11.67;100.00;94571.72;5037772;28;20308;-70
2022/09/28 11:23:35;;;;;;;1.67;1.10;;;;;;;11.25;95.37;94585.81;5037238;28;20323;-70
2022/09/28 11:26:05;;;;;;;5.60;1.70;;;;;;;11.46;100.00;94593.25;5038804;28;20201;-71
2022/09/28 11:28:36;;;;;;;3.70;1.47;;;;;;;11.41;99.86;94590.47;5039189;28;20251;-70
2022/09/28 11:31:05;;;;;;;1.70;1.30;;;;;;;11.42;99.53;94593.91;5038651;28;20240;-70
2022/09/28 11:33:35;;;;;;;3.20;1.70;;;;;;;11.37;100.00;94588.53;5037391;28;20212;-70
2022/09/28 11:36:21;;;;;;;3.53;1.47;;;;;;;11.48;99.49;94587.75;5037957;28;20268;-71
2022/09/28 11:38:56;;;;;;;3.50;1.63;;;;;;;11.51;99.72;94582.06;5037110;28;20349;-71
2022/09/28 11:41:43;;;;;;;4.30;1.50;;;;;;;11.37;99.29;94591.97;5038232;28;20204;-70
2022/09/28 11:44:28;;;;;;;8.63;1.60;;;;;;;11.55;99.30;94584.06;5037783;28;20208;-71
2022/09/28 11:47:10;;;;;;;3.90;1.70;;;;;;;11.42;99.48;94578.91;5037811;28;20210;-71
2022/09/28 11:49:44;;;;;;;3.43;1.43;;;;;;;11.36;98.63;94587.69;5037631;28;20229;-70